createdAt,value
2022-08-26T00:01:11.211Z,99.90
2022-08-26T00:06:12.783Z,99.90
2022-08-26T00:11:14.919Z,99.90
2022-08-26T00:16:28.170Z,99.90
2022-08-26T00:21:30.008Z,99.90
2022-08-26T00:26:31.792Z,99.90
2022-08-26T00:31:33.663Z,99.90
2022-08-26T00:36:37.804Z,99.90
2022-08-26T00:41:40.796Z,99.90
2022-08-26T00:46:46.608Z,99.90
2022-08-26T00:51:48.692Z,99.90
2022-08-26T00:56:50.261Z,99.90
2022-08-26T01:01:52.910Z,99.90
2022-08-26T01:06:54.900Z,99.90
2022-08-26T01:11:56.664Z,99.90
2022-08-26T01:16:58.248Z,99.90
2022-08-26T01:22:00.167Z,99.90
2022-08-26T01:27:01.941Z,99.90
2022-08-26T01:32:03.691Z,99.90
2022-08-26T01:37:06.983Z,99.90
2022-08-26T01:42:10.349Z,99.90
2022-08-26T01:47:12.372Z,99.90
2022-08-26T01:52:14.008Z,99.90
2022-08-26T01:57:15.568Z,99.90
2022-08-26T02:02:17.342Z,99.90
2022-08-26T02:07:19.061Z,99.90
2022-08-26T02:12:23.180Z,99.90
2022-08-26T02:17:24.794Z,99.90
2022-08-26T02:22:26.534Z,99.90
2022-08-26T02:27:28.296Z,99.90
2022-08-26T02:32:34.425Z,99.90
2022-08-26T02:37:36.867Z,99.90
2022-08-26T02:42:39.827Z,99.90
2022-08-26T02:47:41.544Z,99.90
2022-08-26T02:52:43.325Z,99.90
2022-08-26T02:57:44.889Z,99.90
2022-08-26T03:02:46.530Z,99.90
2022-08-26T03:07:48.245Z,99.90
2022-08-26T03:12:50.026Z,99.90
2022-08-26T03:17:53.882Z,99.90
2022-08-26T03:22:56.177Z,99.90
2022-08-26T03:27:57.805Z,99.90
2022-08-26T03:33:01.140Z,99.90
2022-08-26T03:38:02.880Z,99.90
2022-08-26T03:43:04.727Z,99.90
2022-08-26T03:48:06.377Z,99.90
2022-08-26T03:53:13.072Z,99.90
2022-08-26T03:58:14.955Z,99.90
2022-08-26T04:03:18.792Z,99.90
2022-08-26T04:08:20.940Z,99.90
2022-08-26T04:13:23.649Z,99.90
2022-08-26T04:18:28.486Z,99.90
2022-08-26T04:23:34.240Z,99.90
2022-08-26T04:28:49.612Z,99.90
2022-08-26T04:33:51.328Z,99.90
2022-08-26T04:38:52.970Z,99.90
2022-08-26T04:43:55.441Z,99.90
2022-08-26T04:48:57.207Z,99.90
2022-08-26T04:53:59.430Z,99.90
2022-08-26T04:59:01.362Z,99.90
2022-08-26T05:04:05.028Z,99.90
2022-08-26T05:09:09.884Z,99.90
2022-08-26T05:14:11.500Z,99.90
2022-08-26T05:19:13.054Z,99.90
2022-08-26T05:24:14.828Z,99.90
2022-08-26T05:29:16.717Z,99.90
2022-08-26T05:34:18.607Z,99.90
2022-08-26T05:39:21.948Z,99.90
2022-08-26T05:44:23.693Z,99.90
2022-08-26T05:49:26.405Z,99.90
2022-08-26T05:54:28.408Z,99.90
2022-08-26T05:59:30.035Z,99.90
2022-08-26T06:04:34.164Z,99.90
2022-08-26T06:09:35.925Z,99.90
2022-08-26T06:14:40.191Z,99.90
2022-08-26T06:19:41.949Z,99.90
2022-08-26T06:24:43.785Z,99.90
2022-08-26T06:29:45.629Z,99.90
2022-08-26T06:34:48.163Z,99.90
2022-08-26T06:39:51.101Z,99.90
2022-08-26T06:44:52.901Z,99.90
2022-08-26T06:49:54.948Z,99.90
2022-08-26T06:54:56.711Z,99.90
2022-08-26T06:59:58.237Z,99.90
2022-08-26T07:04:59.927Z,99.90
2022-08-26T07:10:01.649Z,99.90
2022-08-26T07:15:03.217Z,99.90
2022-08-26T07:20:04.790Z,99.90
2022-08-26T07:25:06.614Z,99.90
2022-08-26T07:30:08.175Z,99.90
2022-08-26T07:35:09.876Z,99.90
2022-08-26T07:40:11.616Z,99.90
2022-08-26T07:45:13.369Z,99.90
2022-08-26T07:50:15.776Z,99.90
2022-08-26T07:55:17.379Z,99.90
2022-08-26T08:00:19.219Z,99.90
2022-08-26T08:05:20.837Z,99.90
2022-08-26T08:10:25.146Z,99.90
2022-08-26T08:15:28.248Z,99.90
2022-08-26T08:20:29.812Z,99.90
2022-08-26T08:25:31.429Z,99.90
2022-08-26T08:30:33.047Z,99.90
2022-08-26T08:35:36.821Z,99.90
2022-08-26T08:40:39.221Z,99.90
2022-08-26T08:45:42.270Z,99.90
2022-08-26T08:50:43.833Z,99.90
2022-08-26T08:55:45.423Z,99.90
2022-08-26T09:00:47.812Z,99.90
2022-08-26T09:05:51.017Z,99.90
2022-08-26T09:10:52.616Z,99.90
2022-08-26T09:15:55.587Z,99.90
2022-08-26T09:20:57.166Z,99.90
2022-08-26T09:25:58.748Z,95.20
2022-08-26T09:31:00.572Z,96.80
2022-08-26T09:36:02.169Z,96.70
2022-08-26T09:41:03.730Z,97.10
2022-08-26T09:46:06.810Z,93.30
2022-08-26T09:51:08.505Z,92.50
2022-08-26T09:56:10.216Z,93.20
2022-08-26T10:01:12.029Z,92.40
2022-08-26T10:06:13.736Z,91.20
2022-08-26T10:11:15.294Z,92.90
2022-08-26T10:16:18.660Z,90.80
2022-08-26T10:21:20.265Z,90.60
2022-08-26T10:26:23.281Z,90.10
2022-08-26T10:31:27.600Z,90.40
2022-08-26T10:36:29.904Z,88.90
2022-08-26T10:41:31.657Z,89.60
2022-08-26T10:46:33.378Z,90.10
2022-08-26T10:51:35.161Z,87.50
2022-08-26T10:56:36.748Z,86.40
2022-08-26T11:01:40.791Z,85.70
2022-08-26T11:06:42.621Z,85.20
2022-08-26T11:11:44.163Z,84.30
2022-08-26T11:16:46.514Z,81.20
2022-08-26T11:21:49.566Z,80.80
2022-08-26T11:26:55.925Z,81.10
2022-08-26T11:31:58.319Z,81.70
2022-08-26T11:36:59.914Z,78.90
2022-08-26T11:42:01.467Z,79.30
2022-08-26T11:47:03.140Z,79.70
2022-08-26T11:52:04.770Z,82.20
2022-08-26T11:57:09.342Z,79.00
2022-08-26T12:02:13.568Z,81.40
2022-08-26T12:07:15.316Z,78.00
2022-08-26T12:12:17.042Z,75.90
2022-08-26T12:17:18.617Z,73.40
2022-08-26T12:22:24.032Z,72.90
2022-08-26T12:27:26.046Z,74.20
2022-08-26T12:32:27.843Z,72.10
2022-08-26T12:37:30.247Z,73.30
2022-08-26T12:42:31.866Z,74.20
2022-08-26T12:47:41.985Z,71.90
2022-08-26T12:52:45.338Z,74.20
2022-08-26T12:57:46.928Z,74.10
2022-08-26T13:02:48.536Z,71.60
2022-08-26T13:07:50.154Z,72.00
2022-08-26T13:12:51.770Z,72.40
2022-08-26T13:17:53.403Z,72.20
2022-08-26T13:22:59.231Z,71.70
2022-08-26T13:28:01.237Z,72.10
2022-08-26T13:33:02.925Z,72.00
2022-08-26T13:38:05.677Z,72.50
2022-08-26T13:43:08.503Z,73.60
2022-08-26T13:48:10.409Z,76.20
2022-08-26T13:53:12.091Z,76.90
2022-08-26T13:58:13.864Z,75.20
2022-08-26T14:03:15.548Z,77.10
2022-08-26T14:08:17.189Z,76.50
2022-08-26T14:13:18.801Z,76.30
2022-08-26T14:18:20.665Z,77.70
2022-08-26T14:23:25.811Z,76.00
2022-08-26T14:28:27.594Z,76.30
2022-08-26T14:33:29.343Z,78.10
2022-08-26T14:38:31.020Z,75.90
2022-08-26T14:43:32.615Z,76.40
2022-08-26T14:48:34.207Z,74.90
2022-08-26T14:53:35.816Z,77.40
2022-08-26T14:58:37.529Z,76.40
2022-08-26T15:03:39.187Z,74.50
2022-08-26T15:08:41.012Z,76.30
2022-08-26T15:13:42.755Z,72.50
2022-08-26T15:18:44.522Z,73.60
2022-08-26T15:23:47.830Z,74.30
2022-08-26T15:28:49.920Z,73.40
2022-08-26T15:33:51.682Z,73.50
2022-08-26T15:38:53.733Z,72.60
2022-08-26T15:43:55.334Z,72.50
2022-08-26T15:48:57.049Z,71.60
2022-08-26T15:53:58.697Z,73.00
2022-08-26T15:59:00.447Z,76.20
2022-08-26T16:04:02.203Z,77.50
2022-08-26T16:09:03.801Z,78.00
2022-08-26T16:14:05.784Z,77.60
2022-08-26T16:19:07.711Z,76.60
2022-08-26T16:24:09.549Z,77.60
2022-08-26T16:29:11.227Z,78.20
2022-08-26T16:34:13.008Z,79.70
2022-08-26T16:39:14.781Z,79.60
2022-08-26T16:44:16.429Z,80.00
2022-08-26T16:49:18.048Z,80.60
2022-08-26T16:54:19.740Z,80.20
2022-08-26T16:59:21.365Z,79.60
2022-08-26T17:04:23.016Z,79.10
2022-08-26T17:09:24.688Z,79.50
2022-08-26T17:14:26.424Z,80.60
2022-08-26T17:19:28.202Z,80.90
2022-08-26T17:24:34.639Z,81.90
2022-08-26T17:29:36.176Z,82.00
2022-08-26T17:34:37.811Z,83.40
2022-08-26T17:39:39.564Z,84.20
2022-08-26T17:44:41.128Z,85.10
2022-08-26T17:49:42.688Z,86.10
2022-08-26T17:54:44.242Z,86.60
2022-08-26T17:59:45.821Z,87.40
2022-08-26T18:04:47.706Z,88.10
2022-08-26T18:09:49.356Z,88.80
2022-08-26T18:14:51.222Z,89.50
2022-08-26T18:19:52.952Z,90.10
2022-08-26T18:24:58.892Z,90.50
2022-08-26T18:30:01.179Z,91.00
2022-08-26T18:35:02.721Z,91.40
2022-08-26T18:40:04.359Z,91.80
2022-08-26T18:45:06.128Z,92.00
2022-08-26T18:50:07.962Z,92.20
2022-08-26T18:55:09.620Z,92.60
2022-08-26T19:00:11.416Z,93.10
2022-08-26T19:05:15.621Z,93.20
2022-08-26T19:10:17.179Z,93.60
2022-08-26T19:15:18.845Z,93.80
2022-08-26T19:20:22.611Z,94.20
2022-08-26T19:25:24.167Z,94.70
2022-08-26T19:30:25.820Z,95.40
2022-08-26T19:35:31.459Z,96.50
2022-08-26T19:40:33.096Z,97.50
2022-08-26T19:45:35.039Z,99.40
2022-08-26T19:50:36.762Z,99.90
2022-08-26T19:55:38.313Z,99.90
2022-08-26T20:00:39.962Z,99.90
2022-08-26T20:05:41.607Z,99.90
2022-08-26T20:10:43.468Z,99.90
2022-08-26T20:15:45.242Z,99.90
2022-08-26T20:20:46.897Z,99.90
2022-08-26T20:25:48.499Z,99.90
2022-08-26T20:30:50.096Z,99.90
2022-08-26T20:35:51.700Z,99.90
2022-08-26T20:40:54.122Z,99.90
2022-08-26T20:45:58.033Z,99.90
2022-08-26T20:50:59.734Z,99.90
2022-08-26T20:56:01.481Z,99.90
2022-08-26T21:01:07.602Z,99.90
2022-08-26T21:06:09.993Z,99.90
2022-08-26T21:11:11.778Z,99.90
2022-08-26T21:16:13.558Z,99.90
2022-08-26T21:21:15.259Z,99.90
2022-08-26T21:26:17.015Z,99.90
2022-08-26T21:31:18.619Z,99.90
2022-08-26T21:36:20.208Z,99.90
2022-08-26T21:41:22.087Z,99.90
2022-08-26T21:46:23.761Z,99.90
2022-08-26T21:51:25.499Z,99.90
2022-08-26T21:56:27.096Z,99.90
2022-08-26T22:01:28.726Z,99.90
2022-08-26T22:06:30.428Z,99.90
2022-08-26T22:11:32.015Z,99.90
2022-08-26T22:16:33.698Z,99.90
2022-08-26T22:21:35.389Z,99.90
2022-08-26T22:26:37.032Z,99.90
2022-08-26T22:31:39.004Z,99.90
2022-08-26T22:36:43.669Z,99.90
2022-08-26T22:41:45.878Z,99.90
2022-08-26T22:46:47.483Z,99.90
2022-08-26T22:51:49.184Z,99.90
2022-08-26T22:56:50.806Z,99.90
2022-08-26T23:01:52.567Z,99.90
2022-08-26T23:06:54.315Z,99.90
2022-08-26T23:11:55.947Z,99.90
2022-08-26T23:16:57.596Z,99.90
2022-08-26T23:21:59.295Z,99.90
2022-08-26T23:27:00.924Z,99.90
2022-08-26T23:32:02.571Z,99.90
2022-08-26T23:37:06.199Z,99.90
2022-08-26T23:42:08.380Z,99.90
2022-08-26T23:47:09.980Z,99.90
2022-08-26T23:52:12.704Z,99.90
2022-08-26T23:57:14.340Z,99.90
